createdAt,value
2023-03-08T00:00:38.112Z,12.25
2023-03-08T00:03:40.797Z,11.93
2023-03-08T00:06:42.975Z,10.68
2023-03-08T00:09:44.999Z,10.98
2023-03-08T00:12:47.169Z,12.80
2023-03-08T00:15:49.238Z,12.07
2023-03-08T00:18:51.502Z,10.68
2023-03-08T00:21:53.549Z,13.50
2023-03-08T00:24:56.001Z,10.55
2023-03-08T00:27:58.092Z,8.85
2023-03-08T00:31:06.713Z,12.50
2023-03-08T00:34:08.777Z,11.48
2023-03-08T00:37:10.936Z,13.75
2023-03-08T00:40:13.648Z,13.38
2023-03-08T00:43:15.793Z,15.00
2023-03-08T00:46:18.289Z,13.85
2023-03-08T00:49:20.788Z,15.50
2023-03-08T00:52:22.920Z,16.08
2023-03-08T00:55:25.101Z,13.02
2023-03-08T00:58:28.917Z,12.50
2023-03-08T01:01:31.205Z,13.75
2023-03-08T01:04:34.319Z,15.27
2023-03-08T01:07:36.591Z,15.68
2023-03-08T01:10:38.970Z,13.70
2023-03-08T01:13:41.086Z,12.45
2023-03-08T01:16:43.307Z,13.52
2023-03-08T01:19:45.693Z,12.30
2023-03-08T01:22:47.761Z,13.70
2023-03-08T01:25:49.892Z,11.98
2023-03-08T01:28:52.921Z,15.10
2023-03-08T01:31:55.818Z,13.10
2023-03-08T01:34:58.058Z,13.95
2023-03-08T01:38:00.727Z,14.32
2023-03-08T01:41:04.757Z,12.13
2023-03-08T01:44:15.636Z,12.48
2023-03-08T01:47:22.333Z,12.68
2023-03-08T01:50:45.710Z,13.27
2023-03-08T01:53:48.161Z,13.00
2023-03-08T01:56:52.312Z,14.43
2023-03-08T01:59:58.677Z,12.48
2023-03-08T02:03:08.493Z,14.85
2023-03-08T02:06:10.800Z,13.85
2023-03-08T02:09:13.390Z,15.85
2023-03-08T02:12:15.790Z,14.57
2023-03-08T02:15:20.350Z,13.57
2023-03-08T02:18:27.150Z,13.23
2023-03-08T02:21:30.818Z,13.38
2023-03-08T02:24:32.872Z,15.95
2023-03-08T02:27:35.268Z,16.77
2023-03-08T02:30:38.179Z,14.48
2023-03-08T02:36:42.228Z,13.75
2023-03-08T02:39:44.178Z,13.70
2023-03-08T02:42:46.147Z,16.00
2023-03-08T02:45:48.241Z,15.32
2023-03-08T02:48:50.341Z,13.75
2023-03-08T02:51:52.554Z,13.00
2023-03-08T02:54:56.265Z,14.98
2023-03-08T02:58:00.254Z,14.10
2023-03-08T03:01:02.499Z,14.93
2023-03-08T03:04:04.628Z,14.88
2023-03-08T03:10:11.551Z,12.60
2023-03-08T03:13:13.539Z,12.95
2023-03-08T03:16:16.736Z,13.82
2023-03-08T03:19:19.206Z,13.18
2023-03-08T03:22:21.668Z,15.65
2023-03-08T03:25:24.043Z,12.95
2023-03-08T03:28:28.372Z,12.57
2023-03-08T03:31:31.115Z,12.63
2023-03-08T03:34:33.343Z,12.77
2023-03-08T03:37:36.176Z,16.35
2023-03-08T03:40:38.883Z,16.08
2023-03-08T03:43:41.277Z,12.43
2023-03-08T03:46:45.710Z,13.57
2023-03-08T03:49:51.233Z,11.88
2023-03-08T03:52:55.181Z,15.05
2023-03-08T03:56:06.157Z,15.13
2023-03-08T03:59:08.418Z,11.95
2023-03-08T04:02:10.998Z,12.57
2023-03-08T04:05:28.314Z,15.55
2023-03-08T04:11:37.217Z,15.27
2023-03-08T04:14:40.764Z,14.32
2023-03-08T04:17:45.274Z,13.27
2023-03-08T04:20:47.504Z,12.50
2023-03-08T04:23:51.067Z,13.38
2023-03-08T04:26:53.602Z,14.30
2023-03-08T04:29:56.825Z,14.38
2023-03-08T04:32:59.126Z,12.23
2023-03-08T04:36:07.981Z,14.52
2023-03-08T04:39:10.090Z,14.18
2023-03-08T04:42:12.202Z,14.73
2023-03-08T04:45:14.886Z,13.77
2023-03-08T04:48:17.191Z,13.55
2023-03-08T04:51:20.110Z,14.57
2023-03-08T04:54:23.191Z,12.43
2023-03-08T04:57:31.890Z,15.10
2023-03-08T05:00:35.297Z,12.60
2023-03-08T05:03:38.052Z,13.10
2023-03-08T05:06:40.343Z,12.40
2023-03-08T05:09:44.293Z,14.65
2023-03-08T05:12:46.293Z,14.60
2023-03-08T05:15:49.474Z,14.77
2023-03-08T05:18:51.536Z,12.70
2023-03-08T05:21:58.986Z,11.63
2023-03-08T05:25:01.610Z,12.52
2023-03-08T05:28:07.362Z,15.23
2023-03-08T05:31:12.116Z,11.15
2023-03-08T05:34:14.458Z,14.43
2023-03-08T05:37:20.304Z,14.57
2023-03-08T05:40:22.555Z,13.45
2023-03-08T05:46:29.523Z,12.57
2023-03-08T05:49:33.412Z,16.17
2023-03-08T05:52:35.801Z,15.88
2023-03-08T05:55:38.321Z,14.15
2023-03-08T05:58:43.350Z,13.73
2023-03-08T06:01:46.817Z,12.13
2023-03-08T06:05:00.224Z,14.88
2023-03-08T06:08:02.265Z,14.75
2023-03-08T06:11:04.782Z,17.67
2023-03-08T06:14:07.163Z,12.90
2023-03-08T06:17:10.143Z,16.73
2023-03-08T06:20:17.324Z,17.80
2023-03-08T06:23:23.203Z,17.58
2023-03-08T06:26:25.174Z,15.38
2023-03-08T06:29:27.621Z,15.82
2023-03-08T06:32:30.126Z,16.15
2023-03-08T06:35:32.274Z,16.45
2023-03-08T06:38:38.872Z,16.73
2023-03-08T06:41:41.101Z,14.15
2023-03-08T06:44:44.239Z,16.00
2023-03-08T06:47:46.157Z,17.15
2023-03-08T06:53:52.024Z,16.50
2023-03-08T06:56:57.627Z,15.80
2023-03-08T06:59:59.549Z,17.50
2023-03-08T07:03:01.852Z,15.85
2023-03-08T07:06:06.904Z,14.60
2023-03-08T07:09:08.808Z,19.40
2023-03-08T07:12:10.684Z,18.77
2023-03-08T07:15:21.041Z,14.63
2023-03-08T07:18:23.064Z,16.95
2023-03-08T07:21:27.225Z,16.58
2023-03-08T07:24:29.129Z,17.83
2023-03-08T07:27:33.573Z,17.48
2023-03-08T07:30:35.533Z,18.15
2023-03-08T07:33:39.724Z,18.42
2023-03-08T07:36:41.655Z,17.58
2023-03-08T07:39:43.829Z,16.55
2023-03-08T07:42:46.236Z,15.95
2023-03-08T07:46:05.303Z,16.52
2023-03-08T07:49:07.369Z,15.27
2023-03-08T07:52:09.410Z,16.42
2023-03-08T07:55:11.723Z,17.42
2023-03-08T07:58:13.693Z,18.70
2023-03-08T08:01:15.833Z,19.83
2023-03-08T08:04:19.440Z,18.00
2023-03-08T08:07:21.839Z,16.08
2023-03-08T08:10:23.955Z,17.40
2023-03-08T08:13:26.075Z,16.80
2023-03-08T08:16:28.174Z,15.00
2023-03-08T08:19:30.175Z,15.73
2023-03-08T08:22:38.036Z,17.20
2023-03-08T08:25:40.024Z,16.70
2023-03-08T08:28:43.237Z,17.17
2023-03-08T08:31:45.316Z,16.15
2023-03-08T08:34:47.479Z,19.05
2023-03-08T08:37:49.588Z,17.60
2023-03-08T08:40:51.758Z,16.00
2023-03-08T08:43:53.768Z,14.75
2023-03-08T08:46:55.705Z,19.30
2023-03-08T08:49:57.645Z,17.45
2023-03-08T08:52:59.617Z,20.45
2023-03-08T08:56:26.102Z,16.30
2023-03-08T08:59:29.423Z,13.63
2023-03-08T09:02:31.698Z,15.30
2023-03-08T09:05:34.677Z,16.25
2023-03-08T09:11:53.319Z,12.75
2023-03-08T09:14:56.830Z,16.45
2023-03-08T09:17:58.690Z,17.90
2023-03-08T09:21:01.607Z,17.23
2023-03-08T09:24:06.184Z,17.05
2023-03-08T09:27:08.342Z,15.27
2023-03-08T09:30:13.015Z,16.00
2023-03-08T09:33:14.942Z,15.00
2023-03-08T09:36:16.867Z,16.33
2023-03-08T09:39:18.754Z,16.42
2023-03-08T09:42:22.956Z,15.15
2023-03-08T09:45:27.173Z,14.43
2023-03-08T09:48:31.265Z,17.27
2023-03-08T09:51:38.097Z,16.95
2023-03-08T09:54:41.646Z,19.05
2023-03-08T09:57:51.954Z,16.83
2023-03-08T10:00:55.276Z,16.02
2023-03-08T10:04:03.137Z,15.55
2023-03-08T10:07:07.877Z,16.58
2023-03-08T10:10:27.013Z,15.23
2023-03-08T10:13:35.032Z,14.35
2023-03-08T10:16:44.114Z,15.43
2023-03-08T10:20:00.080Z,14.02
2023-03-08T10:23:15.883Z,16.15
2023-03-08T10:26:20.038Z,15.57
2023-03-08T10:29:22.345Z,16.48
2023-03-08T10:32:26.262Z,17.20
2023-03-08T10:36:01.786Z,15.85
2023-03-08T10:39:10.811Z,18.40
2023-03-08T10:45:21.737Z,14.45
2023-03-08T10:48:23.657Z,15.63
2023-03-08T10:51:28.087Z,16.33
2023-03-08T10:54:32.244Z,14.50
2023-03-08T10:57:34.582Z,30.25
2023-03-08T11:00:39.275Z,23.95
2023-03-08T11:03:41.145Z,27.65
2023-03-08T11:06:43.944Z,15.93
2023-03-08T11:09:46.237Z,15.25
2023-03-08T11:12:48.204Z,17.08
2023-03-08T11:16:15.988Z,17.83
2023-03-08T11:19:32.994Z,18.50
2023-03-08T11:23:03.531Z,15.73
2023-03-08T11:26:20.701Z,14.90
2023-03-08T11:29:34.948Z,14.25
2023-03-08T11:32:40.172Z,13.88
2023-03-08T11:36:12.957Z,12.65
2023-03-08T11:39:26.790Z,12.52
2023-03-08T11:42:43.610Z,12.20
2023-03-08T11:45:54.887Z,10.07
2023-03-08T11:49:15.798Z,8.57
2023-03-08T12:03:50.590Z,6.68
2023-03-08T12:06:54.434Z,7.38
2023-03-08T12:10:09.225Z,5.82
2023-03-08T12:13:26.773Z,6.00
2023-03-08T12:16:52.402Z,5.20
2023-03-08T12:19:54.350Z,6.63
2023-03-08T12:23:11.966Z,5.50
2023-03-08T12:26:21.281Z,5.63
2023-03-08T12:29:48.260Z,5.68
2023-03-08T12:32:52.854Z,4.72
2023-03-08T12:35:58.300Z,4.40
2023-03-08T12:39:07.855Z,5.43
2023-03-08T12:42:09.768Z,4.45
2023-03-08T12:45:21.230Z,4.15
2023-03-08T12:48:27.632Z,5.03
2023-03-08T12:51:33.604Z,4.25
2023-03-08T12:54:36.254Z,3.58
2023-03-08T12:57:45.898Z,3.90
2023-03-08T13:00:59.378Z,2.92
2023-03-08T13:04:03.102Z,2.65
2023-03-08T13:07:28.557Z,2.75
2023-03-08T13:10:53.928Z,3.45
2023-03-08T13:13:58.532Z,3.15
2023-03-08T13:17:00.547Z,3.95
2023-03-08T13:20:23.548Z,3.20
2023-03-08T13:23:34.498Z,3.35
2023-03-08T13:26:49.739Z,2.55
2023-03-08T13:29:53.934Z,2.08
2023-03-08T13:32:55.986Z,2.55
2023-03-08T13:36:03.896Z,3.17
2023-03-08T13:39:07.711Z,6.60
2023-03-08T13:42:11.560Z,3.85
2023-03-08T13:45:18.383Z,1.67
2023-03-08T13:48:21.712Z,2.70
2023-03-08T13:51:27.960Z,3.17
2023-03-08T13:54:36.369Z,2.92
2023-03-08T13:57:39.844Z,4.60
2023-03-08T14:00:44.114Z,2.28
2023-03-08T14:03:47.135Z,3.25
2023-03-08T14:06:54.699Z,3.38
2023-03-08T14:10:02.501Z,3.33
2023-03-08T14:13:07.253Z,4.32
2023-03-08T14:16:22.725Z,3.38
2023-03-08T14:19:28.444Z,2.65
2023-03-08T14:22:39.608Z,3.17
2023-03-08T14:25:42.170Z,4.43
2023-03-08T14:28:44.130Z,3.58
2023-03-08T14:32:13.166Z,2.22
2023-03-08T14:35:24.173Z,2.47
2023-03-08T14:38:31.509Z,2.95
2023-03-08T14:41:36.285Z,2.80
2023-03-08T14:44:38.563Z,4.50
2023-03-08T14:47:53.451Z,2.95
2023-03-08T14:51:07.576Z,2.55
2023-03-08T14:54:31.912Z,7.40
2023-03-08T14:57:34.469Z,5.03
2023-03-08T15:03:38.542Z,4.00
2023-03-08T15:06:40.619Z,3.05
2023-03-08T15:09:42.742Z,3.63
2023-03-08T15:12:44.764Z,3.88
2023-03-08T15:15:47.447Z,2.47
2023-03-08T15:18:49.582Z,3.15
2023-03-08T15:21:51.927Z,2.83
2023-03-08T15:24:54.165Z,2.97
2023-03-08T15:27:56.640Z,3.15
2023-03-08T15:34:01.041Z,4.28
2023-03-08T15:37:03.210Z,2.63
2023-03-08T15:40:08.074Z,3.13
2023-03-08T15:43:13.164Z,3.05
2023-03-08T15:46:16.021Z,2.50
2023-03-08T15:49:18.088Z,3.47
2023-03-08T15:52:20.189Z,4.05
2023-03-08T15:55:23.933Z,4.47
2023-03-08T15:58:26.274Z,3.40
2023-03-08T16:01:28.318Z,3.63
2023-03-08T16:04:30.389Z,2.08
2023-03-08T16:07:32.374Z,3.15
2023-03-08T16:10:35.458Z,1.80
2023-03-08T16:13:37.722Z,4.10
2023-03-08T16:16:45.689Z,2.72
2023-03-08T16:19:47.902Z,1.90
2023-03-08T16:22:49.916Z,2.75
2023-03-08T16:26:14.570Z,3.20
2023-03-08T16:29:16.939Z,2.33
2023-03-08T16:32:19.840Z,2.25
2023-03-08T16:35:22.341Z,2.85
2023-03-08T16:38:24.602Z,4.15
2023-03-08T16:41:26.433Z,2.15
2023-03-08T16:44:30.293Z,3.70
2023-03-08T16:47:32.585Z,4.47
2023-03-08T16:50:36.696Z,3.10
2023-03-08T16:53:38.597Z,2.80
2023-03-08T16:56:43.213Z,1.65
2023-03-08T16:59:45.269Z,4.53
2023-03-08T17:02:47.833Z,1.88
2023-03-08T17:08:51.679Z,3.10
2023-03-08T17:11:53.568Z,2.95
2023-03-08T17:14:55.555Z,2.03
2023-03-08T17:17:57.813Z,2.72
2023-03-08T17:20:59.831Z,2.10
2023-03-08T17:24:01.712Z,2.72
2023-03-08T17:27:04.306Z,2.53
2023-03-08T17:30:06.876Z,3.35
2023-03-08T17:36:12.977Z,5.05
2023-03-08T17:39:15.507Z,1.95
2023-03-08T17:42:17.354Z,1.75
2023-03-08T17:45:19.392Z,2.05
2023-03-08T17:48:21.282Z,2.28
2023-03-08T17:51:26.165Z,1.33
2023-03-08T17:54:28.123Z,2.03
2023-03-08T17:57:30.063Z,2.40
2023-03-08T18:00:32.211Z,1.48
2023-03-08T18:03:34.700Z,1.73
2023-03-08T18:09:39.889Z,2.03
2023-03-08T18:12:42.346Z,3.28
2023-03-08T18:15:48.738Z,3.67
2023-03-08T18:18:51.081Z,1.83
2023-03-08T18:21:53.171Z,2.65
2023-03-08T18:24:55.138Z,3.38
2023-03-08T18:27:57.151Z,4.30
2023-03-08T18:30:59.080Z,3.80
2023-03-08T18:34:01.297Z,2.90
2023-03-08T18:37:03.876Z,3.47
2023-03-08T18:40:06.447Z,1.95
2023-03-08T18:46:12.320Z,3.03
2023-03-08T18:49:14.544Z,3.92
2023-03-08T18:52:16.494Z,2.58
2023-03-08T18:55:18.441Z,2.15
2023-03-08T18:58:20.486Z,2.47
2023-03-08T19:01:22.490Z,4.00
2023-03-08T19:04:24.478Z,2.78
2023-03-08T19:07:29.457Z,4.40
2023-03-08T19:10:33.220Z,4.80
2023-03-08T19:13:35.382Z,4.68
2023-03-08T19:16:37.684Z,2.92
2023-03-08T19:19:42.173Z,2.53
2023-03-08T19:22:44.165Z,3.58
2023-03-08T19:25:46.094Z,4.32
2023-03-08T19:28:54.470Z,3.55
2023-03-08T19:31:59.186Z,4.07
2023-03-08T19:35:03.082Z,3.60
2023-03-08T19:38:05.077Z,3.35
2023-03-08T19:41:09.558Z,2.70
2023-03-08T19:44:11.857Z,3.08
2023-03-08T19:47:20.526Z,5.18
2023-03-08T19:50:22.584Z,3.67
2023-03-08T19:53:24.510Z,2.70
2023-03-08T19:56:26.522Z,3.28
2023-03-08T19:59:28.784Z,3.45
2023-03-08T20:02:30.755Z,3.33
2023-03-08T20:05:32.704Z,15.15
2023-03-08T20:08:35.389Z,10.15
2023-03-08T20:14:39.422Z,5.75
2023-03-08T20:17:41.383Z,2.92
2023-03-08T20:20:43.314Z,5.30
2023-03-08T20:23:46.292Z,4.90
2023-03-08T20:26:48.321Z,5.28
2023-03-08T20:29:52.556Z,5.70
2023-03-08T20:32:56.718Z,4.43
2023-03-08T20:36:00.356Z,5.47
2023-03-08T20:39:02.364Z,4.88
2023-03-08T20:42:04.466Z,5.68
2023-03-08T20:45:06.974Z,4.50
2023-03-08T20:51:17.075Z,5.28
2023-03-08T20:54:19.222Z,5.63
2023-03-08T20:57:21.134Z,4.68
2023-03-08T21:00:23.304Z,4.70
2023-03-08T21:03:25.337Z,5.28
2023-03-08T21:06:29.659Z,3.85
2023-03-08T21:09:31.981Z,4.22
2023-03-08T21:12:33.956Z,4.22
2023-03-08T21:15:36.017Z,5.53
2023-03-08T21:18:37.933Z,5.15
2023-03-08T21:21:42.586Z,3.65
2023-03-08T21:24:44.524Z,4.15
2023-03-08T21:27:46.518Z,3.33
2023-03-08T21:30:48.953Z,4.50
2023-03-08T21:33:51.310Z,6.38
2023-03-08T21:36:55.766Z,3.53
2023-03-08T21:40:00.296Z,3.17
2023-03-08T21:43:02.289Z,2.47
2023-03-08T21:46:04.781Z,3.45
2023-03-08T21:52:10.168Z,3.65
2023-03-08T21:55:12.082Z,2.28
2023-03-08T21:58:13.993Z,4.22
2023-03-08T22:01:32.051Z,4.95
2023-03-08T22:04:34.012Z,3.40
2023-03-08T22:07:35.968Z,4.75
2023-03-08T22:10:37.950Z,4.47
2023-03-08T22:13:39.926Z,4.25
2023-03-08T22:16:41.920Z,4.00
2023-03-08T22:19:43.870Z,4.95
2023-03-08T22:22:46.108Z,5.90
2023-03-08T22:25:48.046Z,3.78
2023-03-08T22:28:50.248Z,4.57
2023-03-08T22:31:52.253Z,5.22
2023-03-08T22:34:54.326Z,4.53
2023-03-08T22:37:56.245Z,4.88
2023-03-08T22:40:58.166Z,3.83
2023-03-08T22:44:00.017Z,5.07
2023-03-08T22:47:01.979Z,5.00
2023-03-08T22:50:04.979Z,6.13
2023-03-08T22:53:06.917Z,4.57
2023-03-08T22:56:21.703Z,5.57
2023-03-08T22:59:23.699Z,6.03
2023-03-08T23:02:26.062Z,5.78
2023-03-08T23:05:28.023Z,4.95
2023-03-08T23:08:29.865Z,6.68
2023-03-08T23:11:32.939Z,7.70
2023-03-08T23:14:35.494Z,4.97
2023-03-08T23:17:37.440Z,4.20
2023-03-08T23:20:41.893Z,4.43
2023-03-08T23:23:44.789Z,5.03
2023-03-08T23:26:46.722Z,8.63
2023-03-08T23:29:52.514Z,5.65
2023-03-08T23:32:54.448Z,7.55
2023-03-08T23:35:56.378Z,6.10
2023-03-08T23:39:01.125Z,7.93
2023-03-08T23:42:03.045Z,6.28
2023-03-08T23:45:06.125Z,6.00
2023-03-08T23:48:08.647Z,6.25
2023-03-08T23:51:19.125Z,5.35
2023-03-08T23:54:21.158Z,8.05
2023-03-08T23:57:23.205Z,3.92
